Accueil
METAR-TAF:

METAR-TAF

Aéroports :

Aéroport de Weeze

Weeze, Allemagne

latitude: 51-36-09N, longitude: 006-08-32E, altitude: 32 m

Observation

Le bulletin a été fait il y a 20 heures et 4 minutes, à 15:20 UTC
Vent 9 kt de ouest/sud-ouest
Température 10°C
Humidité 53%
Pression 1011 hPa
Visibilité 10 km ou plus
Nuages fragmentés à une hauteur de 4100 ft

METAR: EDLV 021520Z 25009KT 9999 BKN041 10/01 Q1011

Heure: 13:24 (11:24 UTC)

Prévision

Le bulletin a été fait il y a 20 heures et 29 minutes, à 14:55 UTC
Prévision valable du 02 à 15 UTC au 03 à 12 UTC
Vent 10 kt de ouest
Visibilité 10 km ou plus
Nuages fragmentés à une hauteur de 4000 ft
Evoluant progressivement
du 03 à 01 UTC au 03 à 04 UTC
Vent 5 kt de ouest
Evoluant progressivement
du 03 à 08 UTC au 03 à 11 UTC
Vent 10 kt de ouest/nord-ouest

TAF: EDLV 021455Z 0215/0312 26010KT 9999 BKN040 BECMG 0301/0304 27005KT BECMG 0308/0311 29010KT

Observations et prévisions météorologiques de plus de 4000 aéroports (messages METAR et TAF).

Les stations disponibles sont représentées par des disques jaunes et rouges sur la carte.

Passer la souris dessus pour voir le nom de la station.

Cliquer dessus pour voir les observations et prévisions météorologiques.

Pour changer de carte: cliquez sur les boutons verts avec une croix noire pour zoomer, sur le bouton vert avec un tiret pour effectuer un zoom arrière, ou sur les flèches vertes pour les cartes adjacentes.


METAR-TAF: